NKS343 KDFW-MMUN
Flight info
| Callsign | NKS343 |
|---|---|
| Flight time | 2h 14m |
| Altitude | 33000 |
| Route | DARTZ9 TNV DCT SBI A766 KEHLI UL209 BETAS DCT VOMAR VOMAR1A |
| Aircraft | A21N/M-SDE2E3FGHIRWXY/LB1 |
Departure
| Time | 2026-05-07 04:58 |
|---|---|
| Airport | Dallas Fort Worth International Airport (KDFW) |
Arrival
| Time | 2026-05-07 07:12 |
|---|---|
| Airport | Cancún International Airport (MMUN) |
| Time | Latitude | Longitude | Altitude | Speed | Heading |
|---|---|---|---|---|---|
| 2026-05-07 04:22 | 32.88817 | -97.03616 | 590 ft | 0 kts | 322° |
| 2026-05-07 04:48 | 32.88817 | -97.03615 | 590 ft | 1 kts | 322° |
| 2026-05-07 04:48 | 32.88803 | -97.03603 | 590 ft | 4 kts | 321° |
| 2026-05-07 04:48 | 32.88788 | -97.03581 | 590 ft | 4 kts | 281° |
| 2026-05-07 04:48 | 32.88792 | -97.03556 | 590 ft | 3 kts | 223° |
| 2026-05-07 04:49 | 32.88794 | -97.03554 | 590 ft | 0 kts | 221° |
| 2026-05-07 04:53 | 32.88785 | -97.03563 | 590 ft | 4 kts | 221° |
| 2026-05-07 04:53 | 32.88742 | -97.03589 | 590 ft | 10 kts | 181° |
| 2026-05-07 04:53 | 32.88620 | -97.03566 | 590 ft | 17 kts | 213° |
| 2026-05-07 04:53 | 32.88604 | -97.03719 | 593 ft | 22 kts | 271° |
| 2026-05-07 04:54 | 32.88606 | -97.03849 | 611 ft | 25 kts | 270° |
| 2026-05-07 04:54 | 32.88603 | -97.04083 | 606 ft | 30 kts | 269° |
| 2026-05-07 04:54 | 32.88609 | -97.04349 | 602 ft | 34 kts | 269° |
| 2026-05-07 04:54 | 32.88605 | -97.04587 | 595 ft | 26 kts | 270° |
| 2026-05-07 04:55 | 32.88570 | -97.04776 | 593 ft | 23 kts | 185° |
| 2026-05-07 04:55 | 32.88461 | -97.04805 | 594 ft | 16 kts | 191° |
| 2026-05-07 04:55 | 32.88336 | -97.04808 | 594 ft | 19 kts | 180° |
| 2026-05-07 04:55 | 32.88193 | -97.04810 | 592 ft | 22 kts | 180° |
| 2026-05-07 04:56 | 32.88032 | -97.04811 | 592 ft | 24 kts | 180° |
| 2026-05-07 04:56 | 32.87918 | -97.04827 | 591 ft | 11 kts | 233° |
| 2026-05-07 04:56 | 32.87913 | -97.04925 | 591 ft | 14 kts | 272° |
| 2026-05-07 04:56 | 32.87916 | -97.05051 | 592 ft | 17 kts | 271° |
| 2026-05-07 04:57 | 32.87954 | -97.05093 | 593 ft | 0 kts | 1° |
| 2026-05-07 04:57 | 32.88002 | -97.05092 | 594 ft | 32 kts | 1° |
| 2026-05-07 04:57 | 32.88543 | -97.05085 | 594 ft | 122 kts | 0° |
| 2026-05-07 04:58 | 32.89591 | -97.05074 | 1076 ft | 154 kts | 2° |
| 2026-05-07 04:58 | 32.90678 | -97.05030 | 2188 ft | 162 kts | 4° |
| 2026-05-07 04:58 | 32.91872 | -97.04988 | 2571 ft | 181 kts | 4° |
| 2026-05-07 04:58 | 32.93164 | -97.04989 | 3058 ft | 196 kts | 357° |
| 2026-05-07 04:59 | 32.94561 | -97.05395 | 3454 ft | 220 kts | 343° |
| 2026-05-07 04:59 | 32.96068 | -97.06028 | 3938 ft | 237 kts | 342° |
| 2026-05-07 04:59 | 32.97656 | -97.06696 | 4640 ft | 246 kts | 341° |
| 2026-05-07 04:59 | 32.99249 | -97.07477 | 5417 ft | 251 kts | 330° |
| 2026-05-07 05:00 | 33.00533 | -97.08893 | 6156 ft | 256 kts | 303° |
| 2026-05-07 05:00 | 33.01127 | -97.10893 | 6903 ft | 260 kts | 275° |
| 2026-05-07 05:00 | 33.01071 | -97.13052 | 7683 ft | 263 kts | 265° |
| 2026-05-07 05:00 | 33.00888 | -97.15228 | 8455 ft | 264 kts | 265° |
| 2026-05-07 05:01 | 33.00695 | -97.17413 | 9209 ft | 267 kts | 263° |
| 2026-05-07 05:01 | 33.00457 | -97.19612 | 9771 ft | 275 kts | 263° |
| 2026-05-07 05:01 | 33.00197 | -97.21896 | 10361 ft | 283 kts | 260° |
| 2026-05-07 05:01 | 32.99567 | -97.24180 | 10646 ft | 301 kts | 243° |
| 2026-05-07 05:02 | 32.98233 | -97.26205 | 10898 ft | 322 kts | 227° |
| 2026-05-07 05:02 | 32.96416 | -97.27909 | 11138 ft | 344 kts | 214° |
| 2026-05-07 05:02 | 32.94141 | -97.29052 | 11350 ft | 367 kts | 199° |
| 2026-05-07 05:02 | 32.91573 | -97.29361 | 11767 ft | 384 kts | 183° |
| 2026-05-07 05:03 | 32.88888 | -97.29185 | 12439 ft | 386 kts | 181° |
| 2026-05-07 05:03 | 32.86200 | -97.28982 | 13099 ft | 388 kts | 182° |
| 2026-05-07 05:03 | 32.83495 | -97.28807 | 13737 ft | 389 kts | 183° |
| 2026-05-07 05:03 | 32.80786 | -97.28614 | 14370 ft | 393 kts | 180° |
| 2026-05-07 05:04 | 32.78073 | -97.27891 | 14956 ft | 407 kts | 166° |
| 2026-05-07 05:04 | 32.75546 | -97.26260 | 15530 ft | 422 kts | 150° |
| 2026-05-07 05:04 | 32.73242 | -97.24064 | 16111 ft | 428 kts | 147° |
| 2026-05-07 05:04 | 32.70981 | -97.21818 | 16665 ft | 431 kts | 147° |
| 2026-05-07 05:05 | 32.68665 | -97.19539 | 17218 ft | 433 kts | 148° |
| 2026-05-07 05:05 | 32.66323 | -97.17264 | 17758 ft | 436 kts | 148° |
| 2026-05-07 05:05 | 32.63955 | -97.14987 | 18277 ft | 439 kts | 149° |
| 2026-05-07 05:05 | 32.61577 | -97.12703 | 18780 ft | 442 kts | 149° |
| 2026-05-07 05:06 | 32.59173 | -97.10396 | 19225 ft | 445 kts | 149° |
| 2026-05-07 05:06 | 32.56750 | -97.08072 | 19681 ft | 449 kts | 149° |
| 2026-05-07 05:06 | 32.54310 | -97.05733 | 20104 ft | 452 kts | 149° |
| 2026-05-07 05:06 | 32.51853 | -97.03376 | 20552 ft | 456 kts | 149° |
| 2026-05-07 05:07 | 32.49368 | -97.00999 | 20978 ft | 459 kts | 149° |
| 2026-05-07 05:07 | 32.46910 | -96.98650 | 21398 ft | 462 kts | 149° |
| 2026-05-07 05:07 | 32.44396 | -96.96249 | 21799 ft | 466 kts | 149° |
| 2026-05-07 05:07 | 32.41865 | -96.93831 | 22204 ft | 469 kts | 150° |
| 2026-05-07 05:08 | 32.39316 | -96.91398 | 22602 ft | 472 kts | 150° |
| 2026-05-07 05:08 | 32.36738 | -96.88938 | 22990 ft | 476 kts | 150° |
| 2026-05-07 05:08 | 32.34159 | -96.86475 | 23380 ft | 479 kts | 150° |
| 2026-05-07 05:08 | 32.31547 | -96.83984 | 23748 ft | 482 kts | 150° |
| 2026-05-07 05:09 | 32.28840 | -96.81676 | 24094 ft | 475 kts | 158° |
| 2026-05-07 05:09 | 32.25941 | -96.80028 | 24444 ft | 465 kts | 168° |
| 2026-05-07 05:09 | 32.22891 | -96.78792 | 24803 ft | 463 kts | 172° |
| 2026-05-07 05:09 | 32.19809 | -96.77655 | 25198 ft | 464 kts | 172° |
| 2026-05-07 05:10 | 32.16723 | -96.76499 | 25548 ft | 467 kts | 172° |
| 2026-05-07 05:10 | 32.13625 | -96.75310 | 25919 ft | 468 kts | 171° |
| 2026-05-07 05:10 | 32.10580 | -96.74129 | 26364 ft | 467 kts | 171° |
| 2026-05-07 05:10 | 32.07494 | -96.72927 | 26835 ft | 465 kts | 171° |
| 2026-05-07 05:11 | 32.04425 | -96.71728 | 27298 ft | 463 kts | 172° |
| 2026-05-07 05:11 | 32.01403 | -96.70552 | 27713 ft | 463 kts | 172° |
| 2026-05-07 05:11 | 31.98352 | -96.69365 | 28174 ft | 460 kts | 172° |
| 2026-05-07 05:11 | 31.95322 | -96.68190 | 28622 ft | 458 kts | 172° |
| 2026-05-07 05:12 | 31.92291 | -96.67015 | 29010 ft | 457 kts | 172° |
| 2026-05-07 05:12 | 31.89262 | -96.65842 | 29394 ft | 456 kts | 172° |
| 2026-05-07 05:12 | 31.86443 | -96.64752 | 29774 ft | 454 kts | 172° |
| 2026-05-07 05:12 | 31.83431 | -96.63588 | 30110 ft | 454 kts | 172° |
| 2026-05-07 05:13 | 31.80467 | -96.62442 | 30454 ft | 453 kts | 172° |
| 2026-05-07 05:13 | 31.77466 | -96.61283 | 30802 ft | 452 kts | 173° |
| 2026-05-07 05:13 | 31.74478 | -96.60131 | 31121 ft | 451 kts | 173° |
| 2026-05-07 05:13 | 31.71502 | -96.58987 | 31437 ft | 450 kts | 173° |
| 2026-05-07 05:14 | 31.68527 | -96.57844 | 31733 ft | 449 kts | 173° |
| 2026-05-07 05:14 | 31.65556 | -96.56702 | 32024 ft | 448 kts | 173° |
| 2026-05-07 05:14 | 31.62631 | -96.55577 | 32257 ft | 448 kts | 173° |
| 2026-05-07 05:14 | 31.59666 | -96.54438 | 32507 ft | 448 kts | 173° |
| 2026-05-07 05:15 | 31.56707 | -96.53303 | 32769 ft | 447 kts | 174° |
| 2026-05-07 05:15 | 31.53750 | -96.52165 | 33019 ft | 446 kts | 174° |
| 2026-05-07 05:15 | 31.50806 | -96.51035 | 33123 ft | 446 kts | 174° |
| 2026-05-07 05:15 | 31.47834 | -96.49921 | 33129 ft | 450 kts | 174° |
| 2026-05-07 05:16 | 31.41804 | -96.47677 | 33109 ft | 457 kts | 174° |
| 2026-05-07 05:16 | 31.35765 | -96.45413 | 33101 ft | 458 kts | 174° |
| 2026-05-07 05:17 | 31.29696 | -96.43135 | 33091 ft | 458 kts | 174° |
| 2026-05-07 05:17 | 31.23655 | -96.40879 | 33091 ft | 458 kts | 174° |
| 2026-05-07 05:18 | 31.17577 | -96.38606 | 33087 ft | 458 kts | 173° |
| 2026-05-07 05:18 | 31.11490 | -96.36343 | 33081 ft | 458 kts | 173° |
| 2026-05-07 05:19 | 31.05445 | -96.34092 | 33081 ft | 459 kts | 173° |
| 2026-05-07 05:19 | 30.99349 | -96.31822 | 33081 ft | 459 kts | 173° |
| 2026-05-07 05:20 | 30.93252 | -96.29557 | 33081 ft | 459 kts | 173° |
| 2026-05-07 05:20 | 30.87153 | -96.27298 | 33081 ft | 460 kts | 173° |
| 2026-05-07 05:21 | 30.78019 | -96.23923 | 33081 ft | 461 kts | 173° |
| 2026-05-07 05:22 | 30.71894 | -96.21656 | 33086 ft | 462 kts | 173° |
| 2026-05-07 05:22 | 30.65762 | -96.19396 | 33075 ft | 462 kts | 173° |
| 2026-05-07 05:23 | 30.59663 | -96.17154 | 33066 ft | 463 kts | 173° |
| 2026-05-07 05:23 | 30.53516 | -96.14890 | 33049 ft | 464 kts | 173° |
| 2026-05-07 05:24 | 30.47353 | -96.12631 | 33043 ft | 464 kts | 173° |
| 2026-05-07 05:24 | 30.41179 | -96.10361 | 33036 ft | 465 kts | 172° |
| 2026-05-07 05:25 | 30.35042 | -96.08043 | 33029 ft | 471 kts | 168° |
| 2026-05-07 05:25 | 30.32081 | -96.06278 | 33024 ft | 489 kts | 156° |
| 2026-05-07 05:25 | 30.29446 | -96.03686 | 33026 ft | 510 kts | 141° |
| 2026-05-07 05:25 | 30.27343 | -96.00288 | 33032 ft | 528 kts | 126° |
| 2026-05-07 05:26 | 30.25930 | -95.96313 | 33036 ft | 540 kts | 114° |
| 2026-05-07 05:26 | 30.23664 | -95.88079 | 33032 ft | 540 kts | 114° |
| 2026-05-07 05:27 | 30.21304 | -95.79836 | 33022 ft | 539 kts | 115° |
| 2026-05-07 05:27 | 30.18904 | -95.71611 | 33019 ft | 540 kts | 115° |
| 2026-05-07 05:28 | 30.16495 | -95.63382 | 33018 ft | 540 kts | 115° |
| 2026-05-07 05:28 | 30.14088 | -95.55212 | 33012 ft | 540 kts | 115° |
| 2026-05-07 05:29 | 30.11676 | -95.46982 | 33012 ft | 540 kts | 115° |
| 2026-05-07 05:29 | 30.09272 | -95.38770 | 33007 ft | 540 kts | 115° |
| 2026-05-07 05:30 | 30.06858 | -95.30598 | 32985 ft | 540 kts | 115° |
| 2026-05-07 05:30 | 30.04439 | -95.22411 | 32989 ft | 540 kts | 115° |
| 2026-05-07 05:31 | 30.02006 | -95.14192 | 32999 ft | 541 kts | 115° |
| 2026-05-07 05:31 | 29.99614 | -95.06143 | 33000 ft | 540 kts | 115° |
| 2026-05-07 05:32 | 29.97168 | -94.97964 | 32985 ft | 536 kts | 114° |
| 2026-05-07 05:32 | 29.94765 | -94.89938 | 32980 ft | 536 kts | 114° |
| 2026-05-07 05:33 | 29.92330 | -94.81798 | 32975 ft | 536 kts | 114° |
| 2026-05-07 05:33 | 29.89893 | -94.73672 | 32983 ft | 536 kts | 114° |
| 2026-05-07 05:34 | 29.87452 | -94.65544 | 32972 ft | 536 kts | 114° |
| 2026-05-07 05:34 | 29.85076 | -94.57687 | 32971 ft | 537 kts | 114° |
| 2026-05-07 05:35 | 29.82621 | -94.49564 | 32970 ft | 537 kts | 114° |
| 2026-05-07 05:35 | 29.80157 | -94.41443 | 32973 ft | 537 kts | 114° |
| 2026-05-07 05:36 | 29.77700 | -94.33381 | 32967 ft | 537 kts | 115° |
| 2026-05-07 05:36 | 29.75226 | -94.25276 | 32974 ft | 537 kts | 114° |
| 2026-05-07 05:37 | 29.72744 | -94.17149 | 32964 ft | 538 kts | 114° |
| 2026-05-07 05:37 | 29.70276 | -94.09108 | 32960 ft | 537 kts | 115° |
| 2026-05-07 05:37 | 29.68722 | -94.05248 | 32951 ft | 526 kts | 128° |
| 2026-05-07 05:38 | 29.66485 | -94.01997 | 32955 ft | 510 kts | 143° |
| 2026-05-07 05:38 | 29.63817 | -93.99474 | 32971 ft | 499 kts | 152° |
| 2026-05-07 05:38 | 29.60995 | -93.97143 | 32969 ft | 498 kts | 153° |
| 2026-05-07 05:39 | 29.55375 | -93.92453 | 32969 ft | 499 kts | 152° |
| 2026-05-07 05:39 | 29.49784 | -93.87688 | 32972 ft | 499 kts | 152° |
| 2026-05-07 05:40 | 29.44249 | -93.82957 | 32969 ft | 499 kts | 151° |
| 2026-05-07 05:40 | 29.38816 | -93.78327 | 32973 ft | 499 kts | 152° |
| 2026-05-07 05:41 | 29.33240 | -93.73588 | 32962 ft | 499 kts | 151° |
| 2026-05-07 05:41 | 29.27672 | -93.68852 | 32960 ft | 497 kts | 151° |
| 2026-05-07 05:42 | 29.22110 | -93.64129 | 32960 ft | 497 kts | 151° |
| 2026-05-07 05:42 | 29.16589 | -93.59451 | 32961 ft | 497 kts | 151° |
| 2026-05-07 05:43 | 29.11034 | -93.54760 | 32961 ft | 496 kts | 151° |
| 2026-05-07 05:43 | 29.05486 | -93.50072 | 32958 ft | 496 kts | 151° |
| 2026-05-07 05:44 | 28.99926 | -93.45384 | 32961 ft | 496 kts | 151° |
| 2026-05-07 05:44 | 28.94369 | -93.40704 | 32968 ft | 496 kts | 151° |
| 2026-05-07 05:45 | 28.88850 | -93.36058 | 32974 ft | 495 kts | 151° |
| 2026-05-07 05:45 | 28.84223 | -93.32174 | 32968 ft | 495 kts | 150° |
| 2026-05-07 05:46 | 28.78668 | -93.27505 | 32969 ft | 495 kts | 150° |
| 2026-05-07 05:46 | 28.73139 | -93.22876 | 32964 ft | 495 kts | 150° |
| 2026-05-07 05:47 | 28.67588 | -93.18228 | 32968 ft | 495 kts | 150° |
| 2026-05-07 05:47 | 28.62036 | -93.13584 | 32966 ft | 494 kts | 150° |
| 2026-05-07 05:48 | 28.56488 | -93.08956 | 32966 ft | 494 kts | 150° |
| 2026-05-07 05:48 | 28.50951 | -93.04338 | 32964 ft | 494 kts | 150° |
| 2026-05-07 05:49 | 28.45407 | -92.99726 | 32962 ft | 494 kts | 150° |
| 2026-05-07 05:49 | 28.39891 | -92.95139 | 32967 ft | 494 kts | 150° |
| 2026-05-07 05:50 | 28.34329 | -92.90529 | 32971 ft | 495 kts | 150° |
| 2026-05-07 05:50 | 28.28770 | -92.85922 | 32967 ft | 495 kts | 150° |
| 2026-05-07 05:51 | 28.23452 | -92.81517 | 32972 ft | 495 kts | 150° |
| 2026-05-07 05:51 | 28.17881 | -92.76906 | 32973 ft | 494 kts | 150° |
| 2026-05-07 05:52 | 28.12318 | -92.72319 | 32969 ft | 494 kts | 150° |
| 2026-05-07 05:52 | 28.06761 | -92.67729 | 32967 ft | 494 kts | 150° |
| 2026-05-07 05:53 | 28.01199 | -92.63148 | 32971 ft | 494 kts | 150° |
| 2026-05-07 05:53 | 27.95689 | -92.58609 | 32969 ft | 492 kts | 150° |
| 2026-05-07 05:54 | 27.90325 | -92.54201 | 32970 ft | 492 kts | 150° |
| 2026-05-07 05:54 | 27.84780 | -92.49650 | 32968 ft | 492 kts | 149° |
| 2026-05-07 05:55 | 27.79227 | -92.45102 | 32973 ft | 492 kts | 150° |
| 2026-05-07 05:55 | 27.73675 | -92.40568 | 32984 ft | 492 kts | 150° |
| 2026-05-07 05:56 | 27.68155 | -92.36057 | 32977 ft | 492 kts | 150° |
| 2026-05-07 05:56 | 27.62605 | -92.31523 | 32972 ft | 492 kts | 150° |
| 2026-05-07 05:57 | 27.57046 | -92.26991 | 32978 ft | 492 kts | 150° |
| 2026-05-07 05:57 | 27.51491 | -92.22472 | 32978 ft | 492 kts | 150° |
| 2026-05-07 05:58 | 27.45970 | -92.17990 | 32980 ft | 492 kts | 150° |
| 2026-05-07 05:58 | 27.40408 | -92.13481 | 32984 ft | 492 kts | 150° |
| 2026-05-07 05:59 | 27.34859 | -92.08975 | 32980 ft | 491 kts | 150° |
| 2026-05-07 05:59 | 27.29312 | -92.04482 | 32978 ft | 491 kts | 149° |
| 2026-05-07 06:00 | 27.23792 | -92.00016 | 32977 ft | 491 kts | 150° |
| 2026-05-07 06:00 | 27.18235 | -91.95531 | 32978 ft | 492 kts | 149° |
| 2026-05-07 06:01 | 27.12792 | -91.91138 | 32984 ft | 492 kts | 149° |
| 2026-05-07 06:01 | 27.07225 | -91.86650 | 32977 ft | 491 kts | 149° |
| 2026-05-07 06:02 | 27.01806 | -91.82282 | 32979 ft | 490 kts | 149° |
| 2026-05-07 06:02 | 26.96256 | -91.77807 | 32986 ft | 490 kts | 149° |
| 2026-05-07 06:03 | 26.90707 | -91.73352 | 32982 ft | 490 kts | 149° |
| 2026-05-07 06:03 | 26.85154 | -91.68909 | 32978 ft | 490 kts | 149° |
| 2026-05-07 06:04 | 26.79645 | -91.64490 | 32984 ft | 490 kts | 149° |
| 2026-05-07 06:04 | 26.74102 | -91.60049 | 32981 ft | 489 kts | 149° |
| 2026-05-07 06:05 | 26.68556 | -91.55625 | 32984 ft | 489 kts | 149° |
| 2026-05-07 06:05 | 26.63014 | -91.51213 | 32983 ft | 489 kts | 149° |
| 2026-05-07 06:06 | 26.57477 | -91.46794 | 32981 ft | 489 kts | 149° |
| 2026-05-07 06:06 | 26.51973 | -91.42402 | 32984 ft | 488 kts | 149° |
| 2026-05-07 06:07 | 26.46432 | -91.37999 | 32978 ft | 488 kts | 149° |
| 2026-05-07 06:07 | 26.40882 | -91.33588 | 32978 ft | 488 kts | 149° |
| 2026-05-07 06:08 | 26.35370 | -91.29217 | 32984 ft | 488 kts | 149° |
| 2026-05-07 06:08 | 26.29817 | -91.24822 | 32980 ft | 489 kts | 149° |
| 2026-05-07 06:09 | 26.24269 | -91.20445 | 32980 ft | 489 kts | 149° |
| 2026-05-07 06:09 | 26.18713 | -91.16057 | 32977 ft | 489 kts | 149° |
| 2026-05-07 06:10 | 26.13195 | -91.11712 | 32978 ft | 488 kts | 149° |
| 2026-05-07 06:10 | 26.07640 | -91.07344 | 32984 ft | 489 kts | 149° |
| 2026-05-07 06:11 | 26.02074 | -91.02958 | 32977 ft | 489 kts | 149° |
| 2026-05-07 06:11 | 25.96511 | -90.98585 | 32972 ft | 488 kts | 148° |
| 2026-05-07 06:12 | 25.91005 | -90.94262 | 32964 ft | 487 kts | 149° |
| 2026-05-07 06:12 | 25.85463 | -90.89916 | 32974 ft | 487 kts | 149° |
| 2026-05-07 06:13 | 25.79920 | -90.85575 | 32982 ft | 487 kts | 149° |
| 2026-05-07 06:13 | 25.74377 | -90.81239 | 32982 ft | 487 kts | 148° |
| 2026-05-07 06:14 | 25.68864 | -90.76914 | 32981 ft | 487 kts | 148° |
| 2026-05-07 06:14 | 25.63328 | -90.72567 | 32984 ft | 487 kts | 148° |
| 2026-05-07 06:15 | 25.57781 | -90.68228 | 32979 ft | 486 kts | 148° |
| 2026-05-07 06:15 | 25.52283 | -90.63946 | 32969 ft | 486 kts | 148° |
| 2026-05-07 06:16 | 25.46746 | -90.59647 | 32969 ft | 486 kts | 149° |
| 2026-05-07 06:16 | 25.41219 | -90.55348 | 32968 ft | 486 kts | 148° |
| 2026-05-07 06:17 | 25.35686 | -90.51053 | 32967 ft | 486 kts | 149° |
| 2026-05-07 06:17 | 25.30158 | -90.46759 | 32970 ft | 485 kts | 148° |
| 2026-05-07 06:18 | 25.24628 | -90.42470 | 32969 ft | 485 kts | 148° |
| 2026-05-07 06:18 | 25.19135 | -90.38218 | 32981 ft | 485 kts | 148° |
| 2026-05-07 06:19 | 25.13599 | -90.33939 | 32977 ft | 485 kts | 148° |
| 2026-05-07 06:19 | 25.08059 | -90.29667 | 32984 ft | 484 kts | 148° |
| 2026-05-07 06:20 | 25.02567 | -90.25423 | 32982 ft | 484 kts | 148° |
| 2026-05-07 06:20 | 24.97026 | -90.21166 | 32980 ft | 484 kts | 148° |
| 2026-05-07 06:21 | 24.91506 | -90.16909 | 32977 ft | 484 kts | 148° |
| 2026-05-07 06:21 | 24.86028 | -90.12698 | 32982 ft | 483 kts | 148° |
| 2026-05-07 06:22 | 24.80500 | -90.08457 | 32967 ft | 483 kts | 148° |
| 2026-05-07 06:22 | 24.72230 | -90.02111 | 32972 ft | 483 kts | 148° |
| 2026-05-07 06:23 | 24.66741 | -89.97921 | 32974 ft | 482 kts | 148° |
| 2026-05-07 06:23 | 24.61224 | -89.93706 | 32975 ft | 483 kts | 148° |
| 2026-05-07 06:24 | 24.55713 | -89.89482 | 32974 ft | 483 kts | 148° |
| 2026-05-07 06:24 | 24.50107 | -89.85459 | 32965 ft | 478 kts | 157° |
| 2026-05-07 06:25 | 24.47000 | -89.84206 | 32965 ft | 472 kts | 170° |
| 2026-05-07 06:25 | 24.43770 | -89.83716 | 32970 ft | 467 kts | 180° |
| 2026-05-07 06:25 | 24.37306 | -89.83442 | 32970 ft | 466 kts | 181° |
| 2026-05-07 06:26 | 24.30804 | -89.83149 | 32969 ft | 466 kts | 180° |
| 2026-05-07 06:26 | 24.24328 | -89.82810 | 32970 ft | 466 kts | 180° |
| 2026-05-07 06:27 | 24.17880 | -89.82481 | 32968 ft | 466 kts | 180° |
| 2026-05-07 06:27 | 24.11389 | -89.82147 | 32973 ft | 466 kts | 180° |
| 2026-05-07 06:28 | 24.04893 | -89.81814 | 32967 ft | 466 kts | 180° |
| 2026-05-07 06:28 | 23.98410 | -89.81481 | 32968 ft | 466 kts | 180° |
| 2026-05-07 06:29 | 23.91968 | -89.81149 | 32973 ft | 466 kts | 180° |
| 2026-05-07 06:29 | 23.85480 | -89.80818 | 32972 ft | 466 kts | 180° |
| 2026-05-07 06:30 | 23.78998 | -89.80488 | 32968 ft | 466 kts | 180° |
| 2026-05-07 06:30 | 23.72509 | -89.80148 | 32968 ft | 467 kts | 180° |
| 2026-05-07 06:31 | 23.66045 | -89.79802 | 32972 ft | 467 kts | 180° |
| 2026-05-07 06:31 | 23.59655 | -89.79465 | 32964 ft | 467 kts | 180° |
| 2026-05-07 06:32 | 23.54253 | -89.79183 | 32961 ft | 467 kts | 180° |
| 2026-05-07 06:32 | 23.47749 | -89.78839 | 32961 ft | 467 kts | 180° |
| 2026-05-07 06:33 | 23.40188 | -89.78441 | 32962 ft | 467 kts | 180° |
| 2026-05-07 06:33 | 23.34785 | -89.78156 | 32961 ft | 468 kts | 180° |
| 2026-05-07 06:34 | 23.28265 | -89.77813 | 32960 ft | 468 kts | 180° |
| 2026-05-07 06:34 | 23.21745 | -89.77467 | 32961 ft | 469 kts | 180° |
| 2026-05-07 06:35 | 23.15236 | -89.77126 | 32960 ft | 468 kts | 180° |
| 2026-05-07 06:35 | 23.08753 | -89.76784 | 32960 ft | 469 kts | 180° |
| 2026-05-07 06:36 | 23.02217 | -89.76440 | 32962 ft | 469 kts | 179° |
| 2026-05-07 06:36 | 22.95725 | -89.76104 | 32960 ft | 469 kts | 179° |
| 2026-05-07 06:37 | 22.89195 | -89.75760 | 32960 ft | 469 kts | 179° |
| 2026-05-07 06:37 | 22.82652 | -89.75415 | 32962 ft | 470 kts | 179° |
| 2026-05-07 06:38 | 22.76119 | -89.74960 | 32956 ft | 471 kts | 173° |
| 2026-05-07 06:38 | 22.72938 | -89.74059 | 32957 ft | 475 kts | 161° |
| 2026-05-07 06:38 | 22.70035 | -89.72411 | 32960 ft | 480 kts | 147° |
| 2026-05-07 06:39 | 22.67465 | -89.70020 | 32960 ft | 483 kts | 134° |
| 2026-05-07 06:39 | 22.65494 | -89.67125 | 32960 ft | 487 kts | 121° |
| 2026-05-07 06:39 | 22.64125 | -89.63760 | 32963 ft | 490 kts | 110° |
| 2026-05-07 06:39 | 22.63105 | -89.60237 | 32974 ft | 490 kts | 108° |
| 2026-05-07 06:40 | 22.61100 | -89.53183 | 32977 ft | 490 kts | 109° |
| 2026-05-07 06:40 | 22.59026 | -89.46138 | 32979 ft | 490 kts | 109° |
| 2026-05-07 06:41 | 22.56973 | -89.39150 | 32982 ft | 490 kts | 109° |
| 2026-05-07 06:41 | 22.54916 | -89.32113 | 32994 ft | 490 kts | 109° |
| 2026-05-07 06:42 | 22.52833 | -89.25087 | 32988 ft | 490 kts | 109° |
| 2026-05-07 06:42 | 22.50736 | -89.18067 | 32994 ft | 490 kts | 109° |
| 2026-05-07 06:43 | 22.48653 | -89.11040 | 32995 ft | 490 kts | 109° |
| 2026-05-07 06:43 | 22.46568 | -89.04069 | 32996 ft | 490 kts | 109° |
| 2026-05-07 06:44 | 22.44485 | -88.97049 | 32982 ft | 490 kts | 109° |
| 2026-05-07 06:44 | 22.42389 | -88.90053 | 32986 ft | 488 kts | 109° |
| 2026-05-07 06:45 | 22.40292 | -88.83075 | 32984 ft | 485 kts | 109° |
| 2026-05-07 06:45 | 22.38468 | -88.77098 | 32982 ft | 483 kts | 109° |
| 2026-05-07 06:46 | 22.36428 | -88.70230 | 32985 ft | 482 kts | 109° |
| 2026-05-07 06:46 | 22.34371 | -88.63333 | 32994 ft | 484 kts | 109° |
| 2026-05-07 06:47 | 22.32268 | -88.56352 | 32986 ft | 490 kts | 109° |
| 2026-05-07 06:47 | 22.30162 | -88.49425 | 32689 ft | 481 kts | 109° |
| 2026-05-07 06:48 | 22.29137 | -88.46018 | 32370 ft | 475 kts | 109° |
| 2026-05-07 06:48 | 22.28114 | -88.42617 | 31960 ft | 474 kts | 109° |
| 2026-05-07 06:48 | 22.27107 | -88.39285 | 31268 ft | 472 kts | 109° |
| 2026-05-07 06:48 | 22.26077 | -88.35913 | 30511 ft | 472 kts | 109° |
| 2026-05-07 06:49 | 22.25052 | -88.32540 | 29724 ft | 472 kts | 109° |
| 2026-05-07 06:49 | 22.24045 | -88.29211 | 28877 ft | 473 kts | 109° |
| 2026-05-07 06:49 | 22.23019 | -88.25831 | 27998 ft | 474 kts | 109° |
| 2026-05-07 06:49 | 22.21985 | -88.22449 | 27103 ft | 475 kts | 109° |
| 2026-05-07 06:50 | 22.20951 | -88.19055 | 26244 ft | 475 kts | 109° |
| 2026-05-07 06:50 | 22.19923 | -88.15673 | 25452 ft | 472 kts | 109° |
| 2026-05-07 06:50 | 22.18902 | -88.12312 | 24707 ft | 468 kts | 109° |
| 2026-05-07 06:50 | 22.17904 | -88.09031 | 23976 ft | 464 kts | 109° |
| 2026-05-07 06:51 | 22.16897 | -88.05736 | 23246 ft | 460 kts | 109° |
| 2026-05-07 06:51 | 22.15894 | -88.02474 | 22540 ft | 456 kts | 109° |
| 2026-05-07 06:51 | 22.14900 | -87.99239 | 21809 ft | 452 kts | 109° |
| 2026-05-07 06:51 | 22.13869 | -87.96049 | 21041 ft | 449 kts | 113° |
| 2026-05-07 06:52 | 22.12284 | -87.93215 | 20585 ft | 434 kts | 130° |
| 2026-05-07 06:52 | 22.10108 | -87.90957 | 20276 ft | 433 kts | 139° |
| 2026-05-07 06:52 | 22.07836 | -87.88852 | 19728 ft | 427 kts | 139° |
| 2026-05-07 06:52 | 22.05611 | -87.86755 | 19086 ft | 423 kts | 138° |
| 2026-05-07 06:53 | 22.03423 | -87.84644 | 18431 ft | 421 kts | 137° |
| 2026-05-07 06:53 | 22.01264 | -87.82530 | 17800 ft | 418 kts | 137° |
| 2026-05-07 06:53 | 21.99125 | -87.80420 | 17159 ft | 416 kts | 137° |
| 2026-05-07 06:53 | 21.97022 | -87.78337 | 16503 ft | 415 kts | 136° |
| 2026-05-07 06:54 | 21.94899 | -87.76245 | 15874 ft | 413 kts | 137° |
| 2026-05-07 06:54 | 21.92783 | -87.74162 | 15268 ft | 410 kts | 136° |
| 2026-05-07 06:54 | 21.90686 | -87.72096 | 14647 ft | 407 kts | 136° |
| 2026-05-07 06:54 | 21.88612 | -87.70046 | 14142 ft | 398 kts | 136° |
| 2026-05-07 06:55 | 21.86607 | -87.68070 | 13837 ft | 383 kts | 136° |
| 2026-05-07 06:55 | 21.84664 | -87.66165 | 13560 ft | 369 kts | 136° |
| 2026-05-07 06:55 | 21.82802 | -87.64332 | 13324 ft | 355 kts | 136° |
| 2026-05-07 06:55 | 21.81037 | -87.62595 | 13084 ft | 342 kts | 136° |
| 2026-05-07 06:56 | 21.79285 | -87.60871 | 12543 ft | 340 kts | 136° |
| 2026-05-07 06:56 | 21.77539 | -87.59153 | 11928 ft | 339 kts | 135° |
| 2026-05-07 06:56 | 21.75813 | -87.57454 | 11515 ft | 332 kts | 136° |
| 2026-05-07 06:56 | 21.74159 | -87.55827 | 11279 ft | 319 kts | 136° |
| 2026-05-07 06:57 | 21.72550 | -87.54245 | 11082 ft | 306 kts | 136° |
| 2026-05-07 06:57 | 21.71008 | -87.52727 | 10894 ft | 294 kts | 136° |
| 2026-05-07 06:57 | 21.69506 | -87.51252 | 10467 ft | 291 kts | 136° |
| 2026-05-07 06:57 | 21.68043 | -87.49814 | 10107 ft | 286 kts | 136° |
| 2026-05-07 06:58 | 21.66583 | -87.48381 | 9731 ft | 283 kts | 136° |
| 2026-05-07 06:58 | 21.65122 | -87.46956 | 9348 ft | 283 kts | 137° |
| 2026-05-07 06:58 | 21.63633 | -87.45568 | 8981 ft | 281 kts | 140° |
| 2026-05-07 06:58 | 21.62118 | -87.44265 | 8614 ft | 276 kts | 140° |
| 2026-05-07 06:59 | 21.60617 | -87.42982 | 8256 ft | 275 kts | 140° |
| 2026-05-07 06:59 | 21.59114 | -87.41698 | 7905 ft | 275 kts | 140° |
| 2026-05-07 06:59 | 21.57624 | -87.40424 | 7566 ft | 273 kts | 140° |
| 2026-05-07 06:59 | 21.56186 | -87.39195 | 7235 ft | 272 kts | 140° |
| 2026-05-07 07:00 | 21.54695 | -87.37915 | 6875 ft | 269 kts | 140° |
| 2026-05-07 07:00 | 21.53266 | -87.36684 | 6521 ft | 264 kts | 140° |
| 2026-05-07 07:00 | 21.51837 | -87.35457 | 6178 ft | 262 kts | 140° |
| 2026-05-07 07:00 | 21.50414 | -87.34241 | 5835 ft | 261 kts | 140° |
| 2026-05-07 07:01 | 21.48998 | -87.33030 | 5498 ft | 259 kts | 140° |
| 2026-05-07 07:01 | 21.47593 | -87.31828 | 5165 ft | 258 kts | 140° |
| 2026-05-07 07:01 | 21.46194 | -87.30631 | 4846 ft | 256 kts | 140° |
| 2026-05-07 07:01 | 21.44802 | -87.29440 | 4505 ft | 255 kts | 140° |
| 2026-05-07 07:02 | 21.43419 | -87.28256 | 4197 ft | 251 kts | 140° |
| 2026-05-07 07:02 | 21.42082 | -87.27116 | 4024 ft | 240 kts | 140° |
| 2026-05-07 07:02 | 21.40810 | -87.26030 | 3963 ft | 224 kts | 140° |
| 2026-05-07 07:02 | 21.39623 | -87.25015 | 3971 ft | 220 kts | 140° |
| 2026-05-07 07:03 | 21.38408 | -87.23982 | 3986 ft | 220 kts | 142° |
| 2026-05-07 07:03 | 21.37120 | -87.23128 | 3994 ft | 221 kts | 150° |
| 2026-05-07 07:03 | 21.35741 | -87.22385 | 4000 ft | 222 kts | 151° |
| 2026-05-07 07:03 | 21.34358 | -87.21645 | 3999 ft | 221 kts | 151° |
| 2026-05-07 07:04 | 21.32984 | -87.20905 | 3997 ft | 221 kts | 151° |
| 2026-05-07 07:04 | 21.31611 | -87.20164 | 3993 ft | 221 kts | 151° |
| 2026-05-07 07:04 | 21.30237 | -87.19414 | 3992 ft | 222 kts | 149° |
| 2026-05-07 07:04 | 21.28996 | -87.18445 | 3904 ft | 220 kts | 136° |
| 2026-05-07 07:05 | 21.27912 | -87.17306 | 3566 ft | 217 kts | 134° |
| 2026-05-07 07:05 | 21.26859 | -87.16181 | 3213 ft | 216 kts | 134° |
| 2026-05-07 07:05 | 21.25787 | -87.15047 | 2985 ft | 217 kts | 134° |
| 2026-05-07 07:05 | 21.24706 | -87.13914 | 2835 ft | 217 kts | 134° |
| 2026-05-07 07:06 | 21.23631 | -87.12783 | 2702 ft | 217 kts | 134° |
| 2026-05-07 07:06 | 21.22549 | -87.11648 | 2573 ft | 218 kts | 135° |
| 2026-05-07 07:06 | 21.21466 | -87.10514 | 2454 ft | 217 kts | 135° |
| 2026-05-07 07:06 | 21.20390 | -87.09391 | 2327 ft | 216 kts | 135° |
| 2026-05-07 07:07 | 21.19307 | -87.08264 | 2199 ft | 216 kts | 135° |
| 2026-05-07 07:07 | 21.18242 | -87.07160 | 2095 ft | 216 kts | 135° |
| 2026-05-07 07:07 | 21.17166 | -87.06037 | 2004 ft | 216 kts | 135° |
| 2026-05-07 07:07 | 21.16089 | -87.04912 | 1986 ft | 217 kts | 135° |
| 2026-05-07 07:08 | 21.15004 | -87.03780 | 1990 ft | 217 kts | 135° |
| 2026-05-07 07:08 | 21.13920 | -87.02655 | 1992 ft | 217 kts | 135° |
| 2026-05-07 07:08 | 21.12833 | -87.01527 | 1997 ft | 217 kts | 135° |
| 2026-05-07 07:08 | 21.11746 | -87.00400 | 2000 ft | 217 kts | 135° |
| 2026-05-07 07:09 | 21.10781 | -86.99184 | 2005 ft | 206 kts | 126° |
| 2026-05-07 07:09 | 21.10069 | -86.97985 | 1962 ft | 179 kts | 125° |
| 2026-05-07 07:09 | 21.09405 | -86.96909 | 1750 ft | 167 kts | 125° |
| 2026-05-07 07:09 | 21.08783 | -86.95909 | 1556 ft | 152 kts | 125° |
| 2026-05-07 07:10 | 21.08243 | -86.95043 | 1357 ft | 138 kts | 125° |
| 2026-05-07 07:10 | 21.07711 | -86.94186 | 1163 ft | 138 kts | 125° |
| 2026-05-07 07:10 | 21.07176 | -86.93328 | 980 ft | 138 kts | 125° |
| 2026-05-07 07:10 | 21.06643 | -86.92473 | 798 ft | 138 kts | 125° |
| 2026-05-07 07:11 | 21.06110 | -86.91617 | 615 ft | 138 kts | 125° |
| 2026-05-07 07:11 | 21.05578 | -86.90763 | 429 ft | 138 kts | 125° |
| 2026-05-07 07:11 | 21.05046 | -86.89910 | 262 ft | 141 kts | 125° |
| 2026-05-07 07:11 | 21.04489 | -86.89034 | 98 ft | 144 kts | 125° |
| 2026-05-07 07:12 | 21.03945 | -86.88172 | 39 ft | 133 kts | 124° |
| 2026-05-07 07:12 | 21.03549 | -86.87526 | 41 ft | 55 kts | 122° |
| 2026-05-07 07:12 | 21.03486 | -86.87376 | 39 ft | 16 kts | 35° |
| 2026-05-07 07:12 | 21.03522 | -86.87369 | 38 ft | 1 kts | 329° |
| 2026-05-07 07:13 | 21.03546 | -86.87378 | 40 ft | 6 kts | 341° |
| 2026-05-07 07:13 | 21.03595 | -86.87373 | 38 ft | 9 kts | 31° |
| 2026-05-07 07:13 | 21.03661 | -86.87325 | 36 ft | 14 kts | 36° |
| 2026-05-07 07:13 | 21.03644 | -86.87226 | 35 ft | 19 kts | 136° |
| 2026-05-07 07:14 | 21.03562 | -86.87095 | 35 ft | 17 kts | 121° |
| 2026-05-07 07:14 | 21.03543 | -86.87040 | 35 ft | 1 kts | 26° |
| 2026-05-07 07:14 | 21.03568 | -86.87021 | 35 ft | 13 kts | 35° |
| 2026-05-07 07:14 | 21.03606 | -86.86994 | 35 ft | 0 kts | 34° |